sensor_id;sensor_type;location;lat;lon;timestamp;P1;durP1;ratioP1;P2;durP2;ratioP2
59294;SDS011;45067;44.654;20.200;2022-11-15T00:00:47;174.45;;;104.63;;
59294;SDS011;45067;44.654;20.200;2022-11-15T00:03:16;169.88;;;102.47;;
59294;SDS011;45067;44.654;20.200;2022-11-15T00:05:43;175.80;;;103.03;;
59294;SDS011;45067;44.654;20.200;2022-11-15T00:08:09;190.93;;;114.53;;
59294;SDS011;45067;44.654;20.200;2022-11-15T00:10:36;177.65;;;105.22;;
59294;SDS011;45067;44.654;20.200;2022-11-15T00:13:12;178.10;;;107.03;;
59294;SDS011;45067;44.654;20.200;2022-11-15T00:15:39;167.98;;;103.45;;
59294;SDS011;45067;44.654;20.200;2022-11-15T00:18:05;172.85;;;103.63;;
59294;SDS011;45067;44.654;20.200;2022-11-15T00:20:35;176.05;;;107.57;;
59294;SDS011;45067;44.654;20.200;2022-11-15T00:26:05;166.05;;;102.38;;
59294;SDS011;45067;44.654;20.200;2022-11-15T00:28:31;185.60;;;109.78;;
59294;SDS011;45067;44.654;20.200;2022-11-15T00:31:04;178.73;;;109.72;;
59294;SDS011;45067;44.654;20.200;2022-11-15T00:33:30;184.48;;;105.57;;
59294;SDS011;45067;44.654;20.200;2022-11-15T00:36:04;139.95;;;88.13;;
59294;SDS011;45067;44.654;20.200;2022-11-15T00:38:33;155.32;;;95.88;;
59294;SDS011;45067;44.654;20.200;2022-11-15T00:40:59;135.88;;;83.70;;
59294;SDS011;45067;44.654;20.200;2022-11-15T00:43:26;143.40;;;88.03;;
59294;SDS011;45067;44.654;20.200;2022-11-15T00:45:52;150.80;;;92.15;;
59294;SDS011;45067;44.654;20.200;2022-11-15T00:48:19;152.02;;;86.80;;
59294;SDS011;45067;44.654;20.200;2022-11-15T00:50:45;141.45;;;82.80;;
59294;SDS011;45067;44.654;20.200;2022-11-15T00:56:14;126.43;;;73.97;;
59294;SDS011;45067;44.654;20.200;2022-11-15T00:58:40;127.35;;;77.05;;
59294;SDS011;45067;44.654;20.200;2022-11-15T01:01:09;140.55;;;81.50;;
59294;SDS011;45067;44.654;20.200;2022-11-15T01:03:38;132.57;;;77.25;;
59294;SDS011;45067;44.654;20.200;2022-11-15T01:06:04;127.45;;;76.45;;
59294;SDS011;45067;44.654;20.200;2022-11-15T01:08:30;158.13;;;78.72;;
59294;SDS011;45067;44.654;20.200;2022-11-15T01:11:07;115.60;;;70.80;;
59294;SDS011;45067;44.654;20.200;2022-11-15T01:13:34;109.25;;;62.97;;
59294;SDS011;45067;44.654;20.200;2022-11-15T01:16:14;111.22;;;62.40;;
59294;SDS011;45067;44.654;20.200;2022-11-15T01:18:42;93.55;;;58.53;;
59294;SDS011;45067;44.654;20.200;2022-11-15T01:21:12;104.97;;;60.15;;
59294;SDS011;45067;44.654;20.200;2022-11-15T01:23:38;97.43;;;57.00;;
59294;SDS011;45067;44.654;20.200;2022-11-15T01:26:05;105.10;;;57.90;;
59294;SDS011;45067;44.654;20.200;2022-11-15T01:28:32;106.00;;;56.15;;
59294;SDS011;45067;44.654;20.200;2022-11-15T01:30:59;93.38;;;56.55;;
59294;SDS011;45067;44.654;20.200;2022-11-15T01:33:26;93.28;;;55.83;;
59294;SDS011;45067;44.654;20.200;2022-11-15T01:35:52;88.22;;;53.20;;
59294;SDS011;45067;44.654;20.200;2022-11-15T01:41:23;84.43;;;52.67;;
59294;SDS011;45067;44.654;20.200;2022-11-15T01:43:51;115.43;;;54.58;;
59294;SDS011;45067;44.654;20.200;2022-11-15T01:48:44;89.50;;;55.00;;
59294;SDS011;45067;44.654;20.200;2022-11-15T01:51:11;93.72;;;56.13;;
59294;SDS011;45067;44.654;20.200;2022-11-15T01:53:38;97.30;;;55.28;;
59294;SDS011;45067;44.654;20.200;2022-11-15T01:56:07;96.78;;;56.08;;
59294;SDS011;45067;44.654;20.200;2022-11-15T01:58:34;97.32;;;55.53;;
59294;SDS011;45067;44.654;20.200;2022-11-15T02:01:00;93.20;;;55.05;;
59294;SDS011;45067;44.654;20.200;2022-11-15T02:03:28;86.40;;;49.65;;
59294;SDS011;45067;44.654;20.200;2022-11-15T02:05:57;80.03;;;50.00;;
59294;SDS011;45067;44.654;20.200;2022-11-15T02:11:27;85.90;;;50.28;;
59294;SDS011;45067;44.654;20.200;2022-11-15T02:13:54;87.45;;;51.35;;
59294;SDS011;45067;44.654;20.200;2022-11-15T02:19:38;90.93;;;52.78;;
59294;SDS011;45067;44.654;20.200;2022-11-15T02:24:35;92.53;;;54.45;;
59294;SDS011;45067;44.654;20.200;2022-11-15T02:32:18;91.05;;;53.67;;
59294;SDS011;45067;44.654;20.200;2022-11-15T02:35:08;90.35;;;51.28;;
59294;SDS011;45067;44.654;20.200;2022-11-15T02:37:47;95.60;;;53.65;;
59294;SDS011;45067;44.654;20.200;2022-11-15T02:42:45;91.03;;;52.17;;
59294;SDS011;45067;44.654;20.200;2022-11-15T02:45:33;133.57;;;58.72;;
59294;SDS011;45067;44.654;20.200;2022-11-15T02:48:01;106.88;;;57.88;;
59294;SDS011;45067;44.654;20.200;2022-11-15T02:50:29;111.68;;;59.05;;
59294;SDS011;45067;44.654;20.200;2022-11-15T02:52:57;101.25;;;56.17;;
59294;SDS011;45067;44.654;20.200;2022-11-15T02:57:55;92.50;;;56.00;;
59294;SDS011;45067;44.654;20.200;2022-11-15T03:00:25;99.05;;;58.22;;
59294;SDS011;45067;44.654;20.200;2022-11-15T03:05:25;95.65;;;57.97;;
59294;SDS011;45067;44.654;20.200;2022-11-15T03:12:59;81.80;;;50.10;;
59294;SDS011;45067;44.654;20.200;2022-11-15T03:15:31;82.05;;;50.75;;
59294;SDS011;45067;44.654;20.200;2022-11-15T03:18:21;80.03;;;51.60;;
59294;SDS011;45067;44.654;20.200;2022-11-15T03:20:44;87.03;;;54.15;;
59294;SDS011;45067;44.654;20.200;2022-11-15T03:23:11;82.93;;;51.95;;
59294;SDS011;45067;44.654;20.200;2022-11-15T03:25:39;77.68;;;48.90;;
59294;SDS011;45067;44.654;20.200;2022-11-15T03:28:07;74.13;;;49.38;;
59294;SDS011;45067;44.654;20.200;2022-11-15T03:30:34;78.95;;;50.90;;
59294;SDS011;45067;44.654;20.200;2022-11-15T03:33:02;77.07;;;49.38;;
59294;SDS011;45067;44.654;20.200;2022-11-15T03:35:30;72.50;;;47.90;;
59294;SDS011;45067;44.654;20.200;2022-11-15T03:40:30;68.13;;;45.40;;
59294;SDS011;45067;44.654;20.200;2022-11-15T03:43:02;70.97;;;46.78;;
59294;SDS011;45067;44.654;20.200;2022-11-15T03:45:50;64.30;;;44.40;;
59294;SDS011;45067;44.654;20.200;2022-11-15T03:48:21;72.78;;;45.00;;
59294;SDS011;45067;44.654;20.200;2022-11-15T03:50:48;72.03;;;46.38;;
59294;SDS011;45067;44.654;20.200;2022-11-15T03:53:14;69.45;;;45.40;;
59294;SDS011;45067;44.654;20.200;2022-11-15T03:55:41;80.95;;;51.33;;
59294;SDS011;45067;44.654;20.200;2022-11-15T03:58:07;73.57;;;47.72;;
59294;SDS011;45067;44.654;20.200;2022-11-15T04:00:33;80.80;;;49.83;;
59294;SDS011;45067;44.654;20.200;2022-11-15T04:02:59;65.22;;;45.33;;
59294;SDS011;45067;44.654;20.200;2022-11-15T04:05:25;72.75;;;46.22;;
59294;SDS011;45067;44.654;20.200;2022-11-15T04:07:51;68.53;;;46.03;;
59294;SDS011;45067;44.654;20.200;2022-11-15T04:10:17;70.40;;;45.88;;
59294;SDS011;45067;44.654;20.200;2022-11-15T04:12:44;77.57;;;49.00;;
59294;SDS011;45067;44.654;20.200;2022-11-15T04:15:14;76.50;;;49.17;;
59294;SDS011;45067;44.654;20.200;2022-11-15T04:17:48;80.63;;;51.85;;
59294;SDS011;45067;44.654;20.200;2022-11-15T04:22:59;84.15;;;51.80;;
59294;SDS011;45067;44.654;20.200;2022-11-15T04:25:45;74.60;;;48.22;;
59294;SDS011;45067;44.654;20.200;2022-11-15T04:28:11;71.93;;;46.90;;
59294;SDS011;45067;44.654;20.200;2022-11-15T04:30:37;69.95;;;45.17;;
59294;SDS011;45067;44.654;20.200;2022-11-15T04:33:04;65.85;;;44.17;;
59294;SDS011;45067;44.654;20.200;2022-11-15T04:35:30;69.95;;;45.55;;
59294;SDS011;45067;44.654;20.200;2022-11-15T04:37:56;77.60;;;47.58;;
59294;SDS011;45067;44.654;20.200;2022-11-15T04:40:22;72.63;;;47.08;;
59294;SDS011;45067;44.654;20.200;2022-11-15T04:42:49;74.85;;;47.25;;
59294;SDS011;45067;44.654;20.200;2022-11-15T04:45:15;73.90;;;47.85;;
59294;SDS011;45067;44.654;20.200;2022-11-15T04:47:43;73.13;;;46.90;;
59294;SDS011;45067;44.654;20.200;2022-11-15T04:50:09;66.43;;;43.75;;
59294;SDS011;45067;44.654;20.200;2022-11-15T04:52:38;73.82;;;47.47;;
59294;SDS011;45067;44.654;20.200;2022-11-15T04:55:04;74.13;;;45.83;;
59294;SDS011;45067;44.654;20.200;2022-11-15T04:57:30;68.13;;;44.67;;
59294;SDS011;45067;44.654;20.200;2022-11-15T04:59:57;67.45;;;44.03;;
59294;SDS011;45067;44.654;20.200;2022-11-15T05:02:23;68.28;;;44.28;;
59294;SDS011;45067;44.654;20.200;2022-11-15T05:04:49;68.32;;;44.40;;
59294;SDS011;45067;44.654;20.200;2022-11-15T05:07:15;67.03;;;43.28;;
59294;SDS011;45067;44.654;20.200;2022-11-15T05:09:41;71.15;;;45.20;;
59294;SDS011;45067;44.654;20.200;2022-11-15T05:12:07;67.13;;;43.50;;
59294;SDS011;45067;44.654;20.200;2022-11-15T05:14:33;66.30;;;43.20;;
59294;SDS011;45067;44.654;20.200;2022-11-15T05:16:59;67.93;;;43.50;;
59294;SDS011;45067;44.654;20.200;2022-11-15T05:19:25;70.78;;;44.10;;
59294;SDS011;45067;44.654;20.200;2022-11-15T05:21:52;70.47;;;44.67;;
59294;SDS011;45067;44.654;20.200;2022-11-15T05:27:21;70.07;;;43.95;;
59294;SDS011;45067;44.654;20.200;2022-11-15T05:29:47;71.07;;;44.50;;
59294;SDS011;45067;44.654;20.200;2022-11-15T05:32:13;70.88;;;45.05;;
59294;SDS011;45067;44.654;20.200;2022-11-15T05:34:39;74.40;;;46.60;;
59294;SDS011;45067;44.654;20.200;2022-11-15T05:37:06;77.32;;;47.10;;
59294;SDS011;45067;44.654;20.200;2022-11-15T05:42:35;75.88;;;45.40;;
59294;SDS011;45067;44.654;20.200;2022-11-15T05:45:02;70.43;;;45.67;;
59294;SDS011;45067;44.654;20.200;2022-11-15T05:47:31;65.60;;;44.30;;
59294;SDS011;45067;44.654;20.200;2022-11-15T05:49:57;66.80;;;44.30;;
59294;SDS011;45067;44.654;20.200;2022-11-15T05:52:25;76.47;;;49.42;;
59294;SDS011;45067;44.654;20.200;2022-11-15T05:54:53;79.07;;;50.90;;
59294;SDS011;45067;44.654;20.200;2022-11-15T05:57:20;78.80;;;48.65;;
59294;SDS011;45067;44.654;20.200;2022-11-15T05:59:46;87.53;;;50.05;;
59294;SDS011;45067;44.654;20.200;2022-11-15T06:02:12;77.22;;;49.03;;
59294;SDS011;45067;44.654;20.200;2022-11-15T06:04:38;81.05;;;49.33;;
59294;SDS011;45067;44.654;20.200;2022-11-15T06:07:04;80.53;;;49.72;;
59294;SDS011;45067;44.654;20.200;2022-11-15T06:12:34;80.80;;;49.20;;
59294;SDS011;45067;44.654;20.200;2022-11-15T06:15:00;80.15;;;49.65;;
59294;SDS011;45067;44.654;20.200;2022-11-15T06:17:26;77.25;;;50.72;;
59294;SDS011;45067;44.654;20.200;2022-11-15T06:19:52;80.40;;;51.45;;
59294;SDS011;45067;44.654;20.200;2022-11-15T06:22:18;90.75;;;54.25;;
59294;SDS011;45067;44.654;20.200;2022-11-15T06:27:52;89.10;;;52.88;;
59294;SDS011;45067;44.654;20.200;2022-11-15T06:30:18;97.13;;;56.22;;
59294;SDS011;45067;44.654;20.200;2022-11-15T06:32:44;93.57;;;57.65;;
59294;SDS011;45067;44.654;20.200;2022-11-15T06:35:10;90.18;;;55.60;;
59294;SDS011;45067;44.654;20.200;2022-11-15T06:37:36;90.68;;;53.95;;
59294;SDS011;45067;44.654;20.200;2022-11-15T06:40:02;91.97;;;54.78;;
59294;SDS011;45067;44.654;20.200;2022-11-15T06:42:29;92.72;;;57.05;;
59294;SDS011;45067;44.654;20.200;2022-11-15T06:44:55;90.13;;;54.88;;
59294;SDS011;45067;44.654;20.200;2022-11-15T06:47:21;91.97;;;55.30;;
59294;SDS011;45067;44.654;20.200;2022-11-15T06:49:47;93.43;;;54.03;;
59294;SDS011;45067;44.654;20.200;2022-11-15T06:52:13;92.97;;;54.90;;
59294;SDS011;45067;44.654;20.200;2022-11-15T06:57:52;84.15;;;53.50;;
59294;SDS011;45067;44.654;20.200;2022-11-15T07:00:18;81.93;;;52.25;;
59294;SDS011;45067;44.654;20.200;2022-11-15T07:02:45;84.72;;;53.78;;
59294;SDS011;45067;44.654;20.200;2022-11-15T07:05:12;80.18;;;51.30;;
59294;SDS011;45067;44.654;20.200;2022-11-15T07:07:39;86.78;;;53.40;;
59294;SDS011;45067;44.654;20.200;2022-11-15T07:13:08;76.90;;;48.42;;
59294;SDS011;45067;44.654;20.200;2022-11-15T07:15:34;83.25;;;50.42;;
59294;SDS011;45067;44.654;20.200;2022-11-15T07:18:01;77.40;;;50.10;;
59294;SDS011;45067;44.654;20.200;2022-11-15T07:20:27;76.10;;;48.78;;
59294;SDS011;45067;44.654;20.200;2022-11-15T07:23:02;84.75;;;52.22;;
59294;SDS011;45067;44.654;20.200;2022-11-15T07:25:28;83.65;;;54.03;;
59294;SDS011;45067;44.654;20.200;2022-11-15T07:27:58;87.05;;;54.88;;
59294;SDS011;45067;44.654;20.200;2022-11-15T07:30:24;75.38;;;50.08;;
59294;SDS011;45067;44.654;20.200;2022-11-15T07:32:58;76.47;;;48.47;;
59294;SDS011;45067;44.654;20.200;2022-11-15T07:35:25;72.00;;;47.78;;
59294;SDS011;45067;44.654;20.200;2022-11-15T07:37:58;81.95;;;51.55;;
59294;SDS011;45067;44.654;20.200;2022-11-15T07:40:25;84.63;;;54.80;;
59294;SDS011;45067;44.654;20.200;2022-11-15T07:42:51;83.10;;;52.42;;
59294;SDS011;45067;44.654;20.200;2022-11-15T07:45:18;81.68;;;50.67;;
59294;SDS011;45067;44.654;20.200;2022-11-15T07:47:47;80.03;;;51.20;;
59294;SDS011;45067;44.654;20.200;2022-11-15T07:50:13;79.63;;;51.63;;
59294;SDS011;45067;44.654;20.200;2022-11-15T07:52:39;78.13;;;48.78;;
59294;SDS011;45067;44.654;20.200;2022-11-15T07:58:10;82.38;;;52.88;;
59294;SDS011;45067;44.654;20.200;2022-11-15T08:00:36;85.50;;;51.58;;
59294;SDS011;45067;44.654;20.200;2022-11-15T08:03:03;84.82;;;53.40;;
59294;SDS011;45067;44.654;20.200;2022-11-15T08:05:29;93.32;;;57.17;;
59294;SDS011;45067;44.654;20.200;2022-11-15T08:07:55;90.20;;;54.97;;
59294;SDS011;45067;44.654;20.200;2022-11-15T08:13:25;93.13;;;59.13;;
59294;SDS011;45067;44.654;20.200;2022-11-15T08:15:51;90.80;;;58.33;;
59294;SDS011;45067;44.654;20.200;2022-11-15T08:18:17;96.00;;;59.35;;
59294;SDS011;45067;44.654;20.200;2022-11-15T08:31:56;83.40;;;57.42;;
59294;SDS011;45067;44.654;20.200;2022-11-15T08:34:22;88.13;;;57.58;;
59294;SDS011;45067;44.654;20.200;2022-11-15T08:36:48;86.22;;;56.42;;
59294;SDS011;45067;44.654;20.200;2022-11-15T08:39:14;87.82;;;58.10;;
59294;SDS011;45067;44.654;20.200;2022-11-15T08:41:40;83.57;;;55.03;;
59294;SDS011;45067;44.654;20.200;2022-11-15T08:44:06;95.10;;;57.30;;
59294;SDS011;45067;44.654;20.200;2022-11-15T08:46:32;87.15;;;54.30;;
59294;SDS011;45067;44.654;20.200;2022-11-15T08:48:58;91.10;;;56.38;;
59294;SDS011;45067;44.654;20.200;2022-11-15T08:51:24;89.80;;;55.78;;
59294;SDS011;45067;44.654;20.200;2022-11-15T08:53:50;93.85;;;56.67;;
59294;SDS011;45067;44.654;20.200;2022-11-15T08:56:17;85.57;;;54.25;;
59294;SDS011;45067;44.654;20.200;2022-11-15T08:58:43;89.32;;;54.45;;
59294;SDS011;45067;44.654;20.200;2022-11-15T09:01:18;88.47;;;55.88;;
59294;SDS011;45067;44.654;20.200;2022-11-15T09:03:45;81.47;;;54.67;;
59294;SDS011;45067;44.654;20.200;2022-11-15T09:06:11;82.05;;;53.60;;
59294;SDS011;45067;44.654;20.200;2022-11-15T09:08:37;78.47;;;52.20;;
59294;SDS011;45067;44.654;20.200;2022-11-15T09:11:07;83.25;;;51.65;;
59294;SDS011;45067;44.654;20.200;2022-11-15T09:13:34;77.53;;;51.35;;
59294;SDS011;45067;44.654;20.200;2022-11-15T09:16:02;81.00;;;54.60;;
59294;SDS011;45067;44.654;20.200;2022-11-15T09:18:28;90.07;;;53.92;;
59294;SDS011;45067;44.654;20.200;2022-11-15T09:20:55;80.53;;;54.30;;
59294;SDS011;45067;44.654;20.200;2022-11-15T09:23:22;82.65;;;53.70;;
59294;SDS011;45067;44.654;20.200;2022-11-15T09:25:48;91.75;;;52.45;;
59294;SDS011;45067;44.654;20.200;2022-11-15T09:28:17;77.57;;;51.08;;
59294;SDS011;45067;44.654;20.200;2022-11-15T09:30:46;75.13;;;51.15;;
59294;SDS011;45067;44.654;20.200;2022-11-15T09:33:13;71.88;;;48.65;;
59294;SDS011;45067;44.654;20.200;2022-11-15T09:35:39;72.40;;;50.78;;
59294;SDS011;45067;44.654;20.200;2022-11-15T09:38:06;73.63;;;48.90;;
59294;SDS011;45067;44.654;20.200;2022-11-15T09:40:32;71.22;;;49.42;;
59294;SDS011;45067;44.654;20.200;2022-11-15T09:50:54;71.88;;;50.88;;
59294;SDS011;45067;44.654;20.200;2022-11-15T09:53:29;71.80;;;49.42;;
59294;SDS011;45067;44.654;20.200;2022-11-15T09:55:59;72.38;;;48.92;;
59294;SDS011;45067;44.654;20.200;2022-11-15T09:58:28;72.15;;;49.70;;
59294;SDS011;45067;44.654;20.200;2022-11-15T10:00:56;76.07;;;52.15;;
59294;SDS011;45067;44.654;20.200;2022-11-15T10:05:51;74.43;;;50.53;;
59294;SDS011;45067;44.654;20.200;2022-11-15T10:08:23;77.55;;;52.20;;
59294;SDS011;45067;44.654;20.200;2022-11-15T10:10:52;77.95;;;54.03;;
59294;SDS011;45067;44.654;20.200;2022-11-15T10:13:22;74.97;;;52.08;;
59294;SDS011;45067;44.654;20.200;2022-11-15T10:15:48;69.50;;;50.67;;
59294;SDS011;45067;44.654;20.200;2022-11-15T10:18:17;74.97;;;52.35;;
59294;SDS011;45067;44.654;20.200;2022-11-15T10:23:14;75.10;;;51.97;;
59294;SDS011;45067;44.654;20.200;2022-11-15T10:25:41;78.60;;;57.60;;
59294;SDS011;45067;44.654;20.200;2022-11-15T10:30:42;74.38;;;49.63;;
59294;SDS011;45067;44.654;20.200;2022-11-15T10:35:47;77.90;;;51.28;;
59294;SDS011;45067;44.654;20.200;2022-11-15T10:38:13;68.65;;;46.95;;
59294;SDS011;45067;44.654;20.200;2022-11-15T10:40:40;76.53;;;52.00;;
59294;SDS011;45067;44.654;20.200;2022-11-15T10:45:34;69.20;;;48.72;;
59294;SDS011;45067;44.654;20.200;2022-11-15T10:48:34;67.80;;;47.03;;
59294;SDS011;45067;44.654;20.200;2022-11-15T10:50:53;68.07;;;47.15;;
59294;SDS011;45067;44.654;20.200;2022-11-15T10:53:21;67.25;;;46.40;;
59294;SDS011;45067;44.654;20.200;2022-11-15T10:55:49;68.82;;;47.70;;
59294;SDS011;45067;44.654;20.200;2022-11-15T10:58:20;64.53;;;45.65;;
59294;SDS011;45067;44.654;20.200;2022-11-15T11:00:47;64.32;;;46.13;;
59294;SDS011;45067;44.654;20.200;2022-11-15T11:05:48;72.28;;;49.75;;
59294;SDS011;45067;44.654;20.200;2022-11-15T11:10:53;74.05;;;47.50;;
59294;SDS011;45067;44.654;20.200;2022-11-15T11:13:40;67.35;;;45.83;;
59294;SDS011;45067;44.654;20.200;2022-11-15T11:37:11;70.40;;;49.50;;
59294;SDS011;45067;44.654;20.200;2022-11-15T11:42:40;69.00;;;48.50;;
59294;SDS011;45067;44.654;20.200;2022-11-15T11:50:27;79.35;;;54.50;;
59294;SDS011;45067;44.654;20.200;2022-11-15T11:52:57;74.20;;;51.08;;
59294;SDS011;45067;44.654;20.200;2022-11-15T12:00:21;84.88;;;56.80;;
59294;SDS011;45067;44.654;20.200;2022-11-15T12:03:33;92.22;;;61.00;;
59294;SDS011;45067;44.654;20.200;2022-11-15T12:08:28;93.70;;;62.63;;
59294;SDS011;45067;44.654;20.200;2022-11-15T12:11:07;89.53;;;59.10;;
59294;SDS011;45067;44.654;20.200;2022-11-15T12:13:35;78.25;;;52.38;;
59294;SDS011;45067;44.654;20.200;2022-11-15T12:16:05;76.25;;;50.85;;
59294;SDS011;45067;44.654;20.200;2022-11-15T12:18:33;74.10;;;50.17;;
59294;SDS011;45067;44.654;20.200;2022-11-15T12:21:01;71.55;;;48.85;;
59294;SDS011;45067;44.654;20.200;2022-11-15T12:44:02;68.85;;;47.85;;
59294;SDS011;45067;44.654;20.200;2022-11-15T12:49:01;69.45;;;47.45;;
59294;SDS011;45067;44.654;20.200;2022-11-15T13:00:36;60.10;;;46.05;;
59294;SDS011;45067;44.654;20.200;2022-11-15T13:04:53;57.45;;;45.47;;
59294;SDS011;45067;44.654;20.200;2022-11-15T13:10:28;57.33;;;43.13;;
59294;SDS011;45067;44.654;20.200;2022-11-15T13:12:48;58.10;;;48.00;;
59294;SDS011;45067;44.654;20.200;2022-11-15T13:17:54;63.15;;;51.42;;
59294;SDS011;45067;44.654;20.200;2022-11-15T13:20:22;63.25;;;51.40;;
59294;SDS011;45067;44.654;20.200;2022-11-15T13:25:45;55.63;;;44.95;;
59294;SDS011;45067;44.654;20.200;2022-11-15T13:30:40;53.90;;;45.08;;
59294;SDS011;45067;44.654;20.200;2022-11-15T13:33:07;55.25;;;46.75;;
59294;SDS011;45067;44.654;20.200;2022-11-15T13:35:36;52.75;;;45.65;;
59294;SDS011;45067;44.654;20.200;2022-11-15T13:38:04;52.38;;;44.35;;
59294;SDS011;45067;44.654;20.200;2022-11-15T13:40:37;54.72;;;46.85;;
59294;SDS011;45067;44.654;20.200;2022-11-15T13:48:47;54.47;;;45.47;;
59294;SDS011;45067;44.654;20.200;2022-11-15T13:51:27;59.00;;;49.40;;
59294;SDS011;45067;44.654;20.200;2022-11-15T13:53:56;72.50;;;59.70;;
59294;SDS011;45067;44.654;20.200;2022-11-15T13:56:23;55.60;;;46.92;;
59294;SDS011;45067;44.654;20.200;2022-11-15T13:58:51;56.03;;;46.00;;
59294;SDS011;45067;44.654;20.200;2022-11-15T14:01:20;60.38;;;46.85;;
59294;SDS011;45067;44.654;20.200;2022-11-15T14:03:59;62.15;;;48.75;;
59294;SDS011;45067;44.654;20.200;2022-11-15T14:06:27;60.35;;;46.65;;
59294;SDS011;45067;44.654;20.200;2022-11-15T14:11:35;56.70;;;44.33;;
59294;SDS011;45067;44.654;20.200;2022-11-15T14:16:34;61.77;;;44.57;;
59294;SDS011;45067;44.654;20.200;2022-11-15T14:19:01;60.00;;;43.58;;
59294;SDS011;45067;44.654;20.200;2022-11-15T14:21:28;66.78;;;45.15;;
59294;SDS011;45067;44.654;20.200;2022-11-15T14:26:39;63.65;;;43.85;;
59294;SDS011;45067;44.654;20.200;2022-11-15T14:31:50;67.90;;;45.58;;
59294;SDS011;45067;44.654;20.200;2022-11-15T14:34:16;62.78;;;43.70;;
59294;SDS011;45067;44.654;20.200;2022-11-15T14:36:42;66.05;;;44.53;;
59294;SDS011;45067;44.654;20.200;2022-11-15T14:39:08;64.43;;;45.00;;
59294;SDS011;45067;44.654;20.200;2022-11-15T14:41:35;68.32;;;47.40;;
59294;SDS011;45067;44.654;20.200;2022-11-15T14:44:04;63.25;;;44.60;;
59294;SDS011;45067;44.654;20.200;2022-11-15T14:46:31;70.80;;;47.03;;
59294;SDS011;45067;44.654;20.200;2022-11-15T14:48:57;69.53;;;46.90;;
59294;SDS011;45067;44.654;20.200;2022-11-15T14:51:23;70.35;;;45.72;;
59294;SDS011;45067;44.654;20.200;2022-11-15T14:53:50;69.72;;;46.40;;
59294;SDS011;45067;44.654;20.200;2022-11-15T14:56:17;75.13;;;46.75;;
59294;SDS011;45067;44.654;20.200;2022-11-15T14:58:43;76.85;;;48.20;;
59294;SDS011;45067;44.654;20.200;2022-11-15T15:01:12;89.50;;;51.58;;
59294;SDS011;45067;44.654;20.200;2022-11-15T15:03:38;92.72;;;56.42;;
59294;SDS011;45067;44.654;20.200;2022-11-15T15:06:05;96.10;;;57.22;;
59294;SDS011;45067;44.654;20.200;2022-11-15T15:08:31;91.13;;;54.20;;
59294;SDS011;45067;44.654;20.200;2022-11-15T15:10:57;93.75;;;57.92;;
59294;SDS011;45067;44.654;20.200;2022-11-15T15:13:23;90.18;;;54.95;;
59294;SDS011;45067;44.654;20.200;2022-11-15T15:15:50;78.18;;;53.78;;
59294;SDS011;45067;44.654;20.200;2022-11-15T15:18:17;82.35;;;54.08;;
59294;SDS011;45067;44.654;20.200;2022-11-15T15:20:43;89.00;;;56.95;;
59294;SDS011;45067;44.654;20.200;2022-11-15T15:23:16;84.70;;;53.35;;
59294;SDS011;45067;44.654;20.200;2022-11-15T15:25:43;77.72;;;53.47;;
59294;SDS011;45067;44.654;20.200;2022-11-15T15:28:10;80.35;;;52.40;;
59294;SDS011;45067;44.654;20.200;2022-11-15T15:30:36;88.20;;;58.70;;
59294;SDS011;45067;44.654;20.200;2022-11-15T15:33:03;81.03;;;53.35;;
59294;SDS011;45067;44.654;20.200;2022-11-15T15:35:30;77.57;;;52.92;;
59294;SDS011;45067;44.654;20.200;2022-11-15T15:37:57;88.70;;;54.53;;
59294;SDS011;45067;44.654;20.200;2022-11-15T15:40:24;80.47;;;52.70;;
59294;SDS011;45067;44.654;20.200;2022-11-15T15:42:50;87.53;;;54.65;;
59294;SDS011;45067;44.654;20.200;2022-11-15T15:45:17;89.65;;;56.88;;
59294;SDS011;45067;44.654;20.200;2022-11-15T15:47:43;87.50;;;58.30;;
59294;SDS011;45067;44.654;20.200;2022-11-15T15:50:18;83.00;;;56.45;;
59294;SDS011;45067;44.654;20.200;2022-11-15T15:52:46;93.32;;;57.15;;
59294;SDS011;45067;44.654;20.200;2022-11-15T15:55:12;96.38;;;57.53;;
59294;SDS011;45067;44.654;20.200;2022-11-15T15:57:38;88.85;;;56.60;;
59294;SDS011;45067;44.654;20.200;2022-11-15T16:00:04;87.85;;;59.13;;
59294;SDS011;45067;44.654;20.200;2022-11-15T16:02:30;105.57;;;67.35;;
59294;SDS011;45067;44.654;20.200;2022-11-15T16:04:56;111.95;;;71.43;;
59294;SDS011;45067;44.654;20.200;2022-11-15T16:07:23;168.82;;;106.90;;
59294;SDS011;45067;44.654;20.200;2022-11-15T16:09:55;200.20;;;124.20;;
59294;SDS011;45067;44.654;20.200;2022-11-15T16:12:28;194.60;;;126.22;;
59294;SDS011;45067;44.654;20.200;2022-11-15T16:14:55;184.07;;;115.97;;
59294;SDS011;45067;44.654;20.200;2022-11-15T16:17:21;173.13;;;110.72;;
59294;SDS011;45067;44.654;20.200;2022-11-15T16:19:48;167.98;;;106.60;;
59294;SDS011;45067;44.654;20.200;2022-11-15T16:22:14;157.52;;;99.28;;
59294;SDS011;45067;44.654;20.200;2022-11-15T16:24:40;160.52;;;102.80;;
59294;SDS011;45067;44.654;20.200;2022-11-15T16:27:12;145.25;;;88.50;;
59294;SDS011;45067;44.654;20.200;2022-11-15T16:29:39;131.73;;;84.82;;
59294;SDS011;45067;44.654;20.200;2022-11-15T16:32:05;113.35;;;73.43;;
59294;SDS011;45067;44.654;20.200;2022-11-15T16:34:31;115.10;;;71.45;;
59294;SDS011;45067;44.654;20.200;2022-11-15T16:36:57;126.78;;;75.35;;
59294;SDS011;45067;44.654;20.200;2022-11-15T16:42:20;108.85;;;66.25;;
59294;SDS011;45067;44.654;20.200;2022-11-15T16:44:47;100.93;;;67.72;;
59294;SDS011;45067;44.654;20.200;2022-11-15T16:47:17;109.80;;;67.03;;
59294;SDS011;45067;44.654;20.200;2022-11-15T16:49:44;117.22;;;70.63;;
59294;SDS011;45067;44.654;20.200;2022-11-15T16:52:10;118.13;;;69.63;;
59294;SDS011;45067;44.654;20.200;2022-11-15T16:54:37;109.13;;;72.22;;
59294;SDS011;45067;44.654;20.200;2022-11-15T16:57:03;137.48;;;82.68;;
59294;SDS011;45067;44.654;20.200;2022-11-15T16:59:29;116.15;;;71.28;;
59294;SDS011;45067;44.654;20.200;2022-11-15T17:01:57;96.20;;;61.38;;
59294;SDS011;45067;44.654;20.200;2022-11-15T17:04:23;142.63;;;83.95;;
59294;SDS011;45067;44.654;20.200;2022-11-15T17:06:51;90.80;;;57.50;;
59294;SDS011;45067;44.654;20.200;2022-11-15T17:09:21;90.97;;;57.85;;
59294;SDS011;45067;44.654;20.200;2022-11-15T17:11:54;88.47;;;55.47;;
59294;SDS011;45067;44.654;20.200;2022-11-15T17:14:22;105.38;;;57.33;;
59294;SDS011;45067;44.654;20.200;2022-11-15T17:16:48;96.28;;;56.63;;
59294;SDS011;45067;44.654;20.200;2022-11-15T17:19:16;86.80;;;55.08;;
59294;SDS011;45067;44.654;20.200;2022-11-15T17:21:43;101.45;;;61.50;;
59294;SDS011;45067;44.654;20.200;2022-11-15T17:24:10;108.45;;;70.30;;
59294;SDS011;45067;44.654;20.200;2022-11-15T17:26:36;109.47;;;68.18;;
59294;SDS011;45067;44.654;20.200;2022-11-15T17:29:02;102.40;;;60.38;;
59294;SDS011;45067;44.654;20.200;2022-11-15T17:31:32;104.05;;;61.40;;
59294;SDS011;45067;44.654;20.200;2022-11-15T17:34:02;104.75;;;61.13;;
59294;SDS011;45067;44.654;20.200;2022-11-15T17:36:28;98.10;;;59.10;;